createdAt,value
2018-12-26T00:00:18.320Z,45.4
2018-12-26T00:01:07.220Z,45.4
2018-12-26T00:01:57.572Z,45.4
2018-12-26T00:02:49.582Z,45.4
2018-12-26T00:03:37.686Z,45.4
2018-12-26T00:04:27.847Z,45.4
2018-12-26T00:05:17.449Z,45.4
2018-12-26T00:06:08.122Z,45.4
2018-12-26T00:06:57.901Z,45.4
2018-12-26T00:07:47.437Z,45.4
2018-12-26T00:08:37.979Z,45.4
2018-12-26T00:09:28.125Z,45.4
2018-12-26T00:10:17.842Z,45.4
2018-12-26T00:11:08.186Z,45.4
2018-12-26T00:11:57.950Z,45.4
2018-12-26T00:12:48.004Z,45.3
2018-12-26T00:13:37.821Z,45.4
2018-12-26T00:14:28.434Z,45.3
2018-12-26T00:32:39.123Z,45.2
2018-12-26T00:33:29.616Z,45.2
2018-12-26T00:34:19.095Z,45.2
2018-12-26T00:35:09.122Z,45.2
2018-12-26T00:35:58.810Z,45.1
2018-12-26T00:36:48.912Z,45.1
2018-12-26T00:37:39.495Z,45.1
2018-12-26T00:38:28.815Z,45.1
2018-12-26T00:39:18.567Z,45.1
2018-12-26T00:40:08.353Z,45.1
2018-12-26T00:40:58.960Z,45.1
2018-12-26T00:41:48.735Z,45.1
2018-12-26T00:42:40.127Z,45.1
2018-12-26T00:43:29.609Z,45.1
2018-12-26T00:44:18.903Z,45.1
2018-12-26T00:45:09.719Z,45.1
2018-12-26T00:45:59.764Z,45.1
2018-12-26T00:46:49.806Z,45.1
2018-12-26T00:47:39.654Z,45.1
2018-12-26T00:48:29.728Z,45.1
2018-12-26T00:49:20.001Z,45.1
2018-12-26T00:50:10.401Z,45.1
2018-12-26T00:51:00.121Z,45.1
2018-12-26T00:51:49.884Z,45
2018-12-26T00:52:40.053Z,45
2018-12-26T00:53:29.734Z,45
2018-12-26T00:54:19.789Z,45
2018-12-26T00:55:10.141Z,45
2018-12-26T00:56:00.447Z,45
2018-12-26T00:56:50.239Z,45
2018-12-26T00:57:40.103Z,45
2018-12-26T00:58:30.134Z,45
2018-12-26T00:59:19.931Z,45
2018-12-26T01:00:10.266Z,45
2018-12-26T01:01:00.798Z,44.9
2018-12-26T01:01:50.694Z,45
2018-12-26T01:02:41.236Z,44.9
2018-12-26T01:03:30.710Z,44.9
2018-12-26T01:04:20.483Z,44.9
2018-12-26T01:05:10.798Z,44.9
2018-12-26T01:06:00.981Z,44.9
2018-12-26T01:06:51.468Z,44.9
2018-12-26T01:07:41.523Z,44.9
2018-12-26T01:08:31.285Z,44.9
2018-12-26T01:09:20.808Z,44.9
2018-12-26T01:10:11.963Z,44.9
2018-12-26T01:11:00.932Z,44.9
2018-12-26T01:11:51.873Z,44.9
2018-12-26T01:12:41.032Z,44.9
2018-12-26T01:13:31.151Z,44.9
2018-12-26T01:14:21.443Z,44.9
2018-12-26T01:15:11.461Z,44.9
2018-12-26T01:16:01.852Z,44.9
2018-12-26T01:16:51.718Z,44.9
2018-12-26T01:17:41.662Z,44.9
2018-12-26T01:18:32.380Z,44.8
2018-12-26T01:19:21.277Z,44.8
2018-12-26T01:20:12.407Z,44.8
2018-12-26T01:21:01.584Z,44.8
2018-12-26T01:21:52.295Z,44.8
2018-12-26T01:22:41.467Z,44.8
2018-12-26T01:23:32.699Z,44.8
2018-12-26T01:24:22.085Z,44.8
2018-12-26T01:25:12.436Z,44.8
2018-12-26T01:26:02.554Z,44.8
2018-12-26T01:26:52.569Z,44.8
2018-12-26T01:27:42.899Z,44.8
2018-12-26T01:28:32.642Z,44.8
2018-12-26T01:29:22.256Z,44.8
2018-12-26T01:30:12.789Z,44.8
2018-12-26T01:31:02.847Z,44.7
2018-12-26T01:31:52.644Z,44.8
2018-12-26T01:32:42.408Z,44.7
2018-12-26T01:33:33.067Z,44.8
2018-12-26T01:34:23.586Z,44.7
2018-12-26T01:35:12.601Z,44.7
2018-12-26T01:36:02.952Z,44.7
2018-12-26T01:36:52.712Z,44.7
2018-12-26T01:37:43.565Z,44.7
2018-12-26T01:38:33.708Z,44.7
2018-12-26T01:39:23.939Z,44.7
2018-12-26T01:40:13.496Z,44.7
2018-12-26T01:41:03.566Z,44.6
2018-12-26T01:41:53.836Z,44.7
2018-12-26T01:42:43.371Z,44.6
2018-12-26T01:43:33.686Z,44.6
2018-12-26T01:44:23.583Z,44.6
2018-12-26T01:45:13.818Z,44.6
2018-12-26T01:46:03.683Z,44.6
2018-12-26T01:46:53.930Z,44.6
2018-12-26T01:47:43.700Z,44.6
2018-12-26T01:48:32.988Z,44.6
2018-12-26T01:49:24.098Z,44.6
2018-12-26T01:50:13.889Z,44.6
2018-12-26T01:51:03.670Z,44.6
2018-12-26T01:51:54.005Z,44.6
2018-12-26T01:52:44.175Z,44.6
2018-12-26T01:53:34.648Z,44.6
2018-12-26T01:54:24.442Z,44.6
2018-12-26T01:55:14.793Z,44.6
2018-12-26T01:56:04.825Z,44.6
2018-12-26T01:56:54.893Z,44.6
2018-12-26T01:57:44.113Z,44.6
2018-12-26T01:58:34.728Z,44.6
2018-12-26T01:59:25.045Z,44.5
2018-12-26T02:00:14.914Z,44.5
2018-12-26T02:01:05.203Z,44.6
2018-12-26T02:01:55.239Z,44.5
2018-12-26T02:02:44.707Z,44.5
2018-12-26T02:03:34.877Z,44.5
2018-12-26T02:04:24.844Z,44.5
2018-12-26T02:05:15.679Z,44.5
2018-12-26T02:06:05.540Z,44.4
2018-12-26T02:06:55.415Z,44.4
2018-12-26T02:07:45.360Z,44.3
2018-12-26T02:08:34.947Z,44.3
2018-12-26T02:09:25.585Z,44.4
2018-12-26T02:10:15.492Z,44.5
2018-12-26T02:11:05.562Z,44.6
2018-12-26T02:11:55.919Z,44.8
2018-12-26T02:12:44.581Z,44.8
2018-12-26T02:13:35.482Z,44.9
2018-12-26T02:14:26.087Z,45.1
2018-12-26T02:15:16.262Z,45.3
2018-12-26T02:16:05.624Z,45.4
2018-12-26T02:16:55.979Z,45.6
2018-12-26T02:17:45.504Z,45.8
2018-12-26T02:18:36.085Z,45.9
2018-12-26T02:19:26.229Z,46.1
2018-12-26T02:20:16.201Z,46.3
2018-12-26T02:21:05.486Z,46.6
2018-12-26T02:21:56.331Z,46.8
2018-12-26T02:22:46.479Z,46.9
2018-12-26T02:23:36.946Z,47.1
2018-12-26T02:24:26.208Z,47.3
2018-12-26T02:25:16.561Z,47.3
2018-12-26T02:26:06.588Z,47.5
2018-12-26T02:26:56.108Z,47.6
2018-12-26T02:27:46.416Z,47.8
2018-12-26T02:28:35.923Z,47.9
2018-12-26T02:29:25.998Z,48.1
2018-12-26T02:30:16.759Z,48.3
2018-12-26T02:31:06.645Z,48.4
2018-12-26T02:31:56.744Z,48.6
2018-12-26T02:32:47.074Z,48.8
2018-12-26T02:33:36.855Z,48.9
2018-12-26T02:34:26.989Z,49
2018-12-26T02:35:16.708Z,49.2
2018-12-26T02:36:07.408Z,49.4
2018-12-26T02:36:57.098Z,49.6
2018-12-26T02:37:47.198Z,49.8
2018-12-26T02:38:37.487Z,50.1
2018-12-26T02:39:27.587Z,50.2
2018-12-26T02:40:17.617Z,50.4
2018-12-26T02:41:07.465Z,50.6
2018-12-26T02:41:57.995Z,50.7
2018-12-26T02:42:47.778Z,50.8
2018-12-26T02:43:37.540Z,50.9
2018-12-26T02:44:27.859Z,51.1
2018-12-26T02:45:17.842Z,51.3
2018-12-26T02:46:08.222Z,51.5
2018-12-26T02:46:58.066Z,51.7
2018-12-26T02:47:47.576Z,51.8
2018-12-26T02:48:38.466Z,52.1
2018-12-26T02:49:28.709Z,52.2
2018-12-26T02:50:17.749Z,52.3
2018-12-26T02:51:08.602Z,52.5
2018-12-26T02:51:58.959Z,52.7
2018-12-26T02:52:47.969Z,52.9
2018-12-26T02:53:38.249Z,53.1
2018-12-26T02:54:28.574Z,53.3
2018-12-26T02:55:18.360Z,53.4
2018-12-26T02:56:08.953Z,53.6
2018-12-26T02:56:59.003Z,53.8
2018-12-26T02:57:49.083Z,54
2018-12-26T02:58:38.588Z,54.2
2018-12-26T02:59:28.938Z,54.3
2018-12-26T03:00:18.989Z,54.6
2018-12-26T03:01:08.742Z,54.7
2018-12-26T03:01:59.402Z,54.9
2018-12-26T03:02:49.425Z,55
2018-12-26T03:03:39.228Z,55.3
2018-12-26T03:04:28.719Z,55.4
2018-12-26T03:05:19.853Z,55.5
2018-12-26T03:06:09.119Z,55.7
2018-12-26T03:06:58.836Z,55.9
2018-12-26T03:07:49.175Z,56.1
2018-12-26T03:08:39.265Z,56.3
2018-12-26T03:09:29.079Z,56.4
2018-12-26T03:10:19.402Z,56.6
2018-12-26T03:11:09.559Z,56.8
2018-12-26T03:11:59.737Z,56.9
2018-12-26T03:12:50.062Z,57.1
2018-12-26T03:13:38.833Z,57.3
2018-12-26T03:14:29.986Z,57.4
2018-12-26T03:15:20.390Z,57.6
2018-12-26T03:16:59.039Z,57.9
2018-12-26T03:17:49.926Z,58.1
2018-12-26T03:18:40.744Z,58.3
2018-12-26T03:19:30.558Z,58.5
2018-12-26T03:20:19.823Z,58.6
2018-12-26T03:21:10.669Z,58.7
2018-12-26T03:22:00.627Z,59.1
2018-12-26T03:22:50.190Z,59.1
2018-12-26T03:23:40.914Z,59.3
2018-12-26T03:24:30.627Z,59.5
2018-12-26T03:25:20.131Z,59.7
2018-12-26T03:26:10.745Z,59.8
2018-12-26T03:27:00.510Z,59.9
2018-12-26T03:27:50.826Z,60.1
2018-12-26T03:28:40.099Z,60.3
2018-12-26T03:29:30.997Z,60.3
2018-12-26T03:30:20.890Z,60.3
2018-12-26T03:31:10.745Z,60.4
2018-12-26T03:32:01.261Z,60.4
2018-12-26T03:32:50.988Z,60.4
2018-12-26T03:33:41.236Z,60.4
2018-12-26T03:34:30.751Z,60.4
2018-12-26T03:35:20.836Z,60.4
2018-12-26T03:36:11.446Z,60.4
2018-12-26T03:37:01.203Z,60.4
2018-12-26T03:37:51.554Z,60.4
2018-12-26T03:38:41.603Z,60.4
2018-12-26T03:39:31.406Z,60.4
2018-12-26T03:40:21.941Z,60.4
2018-12-26T03:41:11.583Z,60.4
2018-12-26T03:42:01.819Z,60.4
2018-12-26T03:42:51.333Z,60.4
2018-12-26T03:43:41.066Z,60.4
2018-12-26T03:44:31.388Z,60.4
2018-12-26T03:45:22.303Z,60.4
2018-12-26T03:46:11.547Z,60.4
2018-12-26T03:47:01.726Z,60.4
2018-12-26T03:47:52.466Z,60.4
2018-12-26T03:48:42.518Z,60.4
2018-12-26T03:49:32.575Z,60.4
2018-12-26T03:50:21.825Z,60.4
2018-12-26T03:51:12.428Z,60.4
2018-12-26T03:52:05.309Z,60.3
2018-12-26T03:52:52.593Z,60.4
2018-12-26T03:53:42.596Z,60.4
2018-12-26T03:54:32.408Z,60.4
2018-12-26T03:55:22.743Z,60.3
2018-12-26T03:56:12.250Z,60.3
2018-12-26T03:57:10.635Z,60.3
2018-12-26T03:57:51.799Z,60.3
2018-12-26T03:58:43.220Z,60.4
2018-12-26T03:59:33.302Z,60.3
2018-12-26T04:00:23.098Z,60.3
2018-12-26T04:01:12.865Z,60.3
2018-12-26T04:02:03.227Z,60.3
2018-12-26T04:02:52.974Z,60.3
2018-12-26T04:03:42.979Z,60.3
2018-12-26T04:04:32.592Z,60.3
2018-12-26T04:05:22.866Z,60.3
2018-12-26T04:06:12.700Z,60.3
2018-12-26T04:07:03.093Z,60.3
2018-12-26T04:07:53.562Z,60.3
2018-12-26T04:08:43.135Z,60.3
2018-12-26T04:09:33.710Z,60.3
2018-12-26T04:10:23.205Z,60.3
2018-12-26T04:11:14.072Z,60.3
2018-12-26T04:12:03.905Z,60.3
2018-12-26T04:12:53.763Z,60.3
2018-12-26T04:13:43.217Z,60.3
2018-12-26T04:14:34.031Z,60.3
2018-12-26T04:15:22.917Z,60.3
2018-12-26T04:16:13.991Z,60.2
2018-12-26T04:17:04.185Z,60.2
2018-12-26T04:17:54.529Z,60.2
2018-12-26T04:18:43.550Z,60.2
2018-12-26T04:19:34.101Z,60.2
2018-12-26T04:20:23.971Z,60.2
2018-12-26T04:21:13.963Z,60.2
2018-12-26T04:22:03.497Z,60.2
2018-12-26T04:22:53.680Z,60.2
2018-12-26T04:23:43.614Z,60.2
2018-12-26T04:24:34.264Z,60.1
2018-12-26T04:25:25.124Z,60.1
2018-12-26T04:26:14.358Z,60.1
2018-12-26T04:27:04.426Z,60.1
2018-12-26T04:27:54.460Z,60.1
2018-12-26T04:28:44.541Z,60.1
2018-12-26T04:29:34.003Z,60.1
2018-12-26T04:30:24.943Z,60.1
2018-12-26T04:31:15.071Z,60.1
2018-12-26T04:32:04.863Z,60.1
2018-12-26T04:32:54.247Z,60.1
2018-12-26T04:33:44.876Z,60.1
2018-12-26T04:34:34.896Z,60.1
2018-12-26T04:35:24.673Z,60.1
2018-12-26T04:36:15.031Z,60.1
2018-12-26T04:37:05.146Z,60.1
2018-12-26T04:37:54.858Z,60.1
2018-12-26T04:38:44.676Z,60.1
2018-12-26T04:39:35.255Z,60.1
2018-12-26T04:40:24.206Z,60.1
2018-12-26T04:41:15.665Z,60.1
2018-12-26T04:42:05.695Z,60
2018-12-26T04:42:55.201Z,60.1
2018-12-26T04:43:45.518Z,60
2018-12-26T04:44:35.693Z,60
2018-12-26T05:01:57.894Z,59.9
2018-12-26T05:02:47.156Z,59.9
2018-12-26T05:03:37.526Z,59.9
2018-12-26T05:04:27.814Z,59.9
2018-12-26T05:05:18.426Z,59.9
2018-12-26T05:06:08.706Z,59.9
2018-12-26T05:06:57.739Z,59.9
2018-12-26T05:07:48.279Z,59.9
2018-12-26T05:08:38.839Z,59.8
2018-12-26T05:09:28.656Z,59.8
2018-12-26T05:10:18.176Z,59.8
2018-12-26T05:11:08.382Z,59.8
2018-12-26T05:11:58.113Z,59.8
2018-12-26T05:12:48.331Z,59.8
2018-12-26T05:13:38.605Z,59.8
2018-12-26T05:14:28.528Z,59.8
2018-12-26T05:15:18.533Z,59.8
2018-12-26T05:16:08.643Z,59.8
2018-12-26T05:16:58.936Z,59.8
2018-12-26T05:17:48.797Z,59.8
2018-12-26T05:18:38.678Z,59.8
2018-12-26T05:19:28.556Z,59.8
2018-12-26T05:20:18.583Z,59.8
2018-12-26T05:21:09.381Z,59.8
2018-12-26T05:21:58.428Z,59.8
2018-12-26T05:22:48.965Z,59.8
2018-12-26T05:23:39.592Z,59.8
2018-12-26T05:24:29.405Z,59.7
2018-12-26T05:25:19.133Z,59.8
2018-12-26T05:26:09.270Z,59.7
2018-12-26T05:26:59.548Z,59.7
2018-12-26T05:27:50.470Z,59.7
2018-12-26T05:28:40.307Z,59.7
2018-12-26T05:29:29.497Z,59.7
2018-12-26T05:30:19.261Z,59.7
2018-12-26T05:31:10.092Z,59.7
2018-12-26T05:31:59.865Z,59.7
2018-12-26T05:32:49.166Z,59.7
2018-12-26T05:33:40.258Z,59.7
2018-12-26T05:34:29.771Z,59.6
2018-12-26T05:35:20.227Z,59.6
2018-12-26T05:36:10.159Z,59.6
2018-12-26T05:36:59.907Z,59.6
2018-12-26T05:37:50.371Z,59.6
2018-12-26T05:38:40.324Z,59.6
2018-12-26T05:39:29.829Z,59.6
2018-12-26T05:40:20.466Z,59.6
2018-12-26T05:41:10.527Z,59.6
2018-12-26T05:42:01.074Z,59.6
2018-12-26T05:42:50.555Z,59.6
2018-12-26T05:43:40.928Z,59.6
2018-12-26T05:44:30.438Z,59.6
2018-12-26T05:45:21.091Z,59.6
2018-12-26T05:46:10.829Z,59.6
2018-12-26T05:47:00.882Z,59.6
2018-12-26T05:47:51.004Z,59.6
2018-12-26T05:48:41.273Z,59.5
2018-12-26T05:49:31.333Z,59.6
2018-12-26T05:50:21.198Z,59.6
2018-12-26T05:51:10.891Z,59.5
2018-12-26T05:52:00.661Z,59.5
2018-12-26T05:52:51.613Z,59.5
2018-12-26T05:53:41.389Z,59.5
2018-12-26T05:54:31.378Z,59.5
2018-12-26T05:55:21.446Z,59.5
2018-12-26T05:56:11.530Z,59.5
2018-12-26T05:57:01.813Z,59.5
2018-12-26T05:57:51.063Z,59.5
2018-12-26T05:58:41.726Z,59.4
2018-12-26T05:59:31.460Z,59.4
2018-12-26T06:00:21.923Z,59.4
2018-12-26T06:01:11.580Z,59.4
2018-12-26T06:02:02.173Z,59.4
2018-12-26T06:02:51.673Z,59.4
2018-12-26T06:03:41.183Z,59.4
2018-12-26T06:04:32.590Z,59.4
2018-12-26T06:05:22.219Z,59.4
2018-12-26T06:06:12.565Z,59.4
2018-12-26T06:07:02.247Z,59.4
2018-12-26T06:07:52.585Z,59.4
2018-12-26T06:08:42.655Z,59.4
2018-12-26T06:09:32.966Z,59.4
2018-12-26T06:10:22.582Z,59.4
2018-12-26T06:11:12.805Z,59.4
2018-12-26T06:12:02.857Z,59.4
2018-12-26T06:12:52.879Z,59.4
2018-12-26T06:13:42.974Z,59.3
2018-12-26T06:14:32.571Z,59.4
2018-12-26T06:15:22.507Z,59.3
2018-12-26T06:16:12.582Z,59.3
2018-12-26T06:17:02.659Z,59.3
2018-12-26T06:17:53.572Z,59.3
2018-12-26T06:18:43.119Z,59.3
2018-12-26T06:19:33.084Z,59.3
2018-12-26T06:20:23.467Z,59.3
2018-12-26T06:21:13.238Z,59.3
2018-12-26T06:22:03.535Z,59.3
2018-12-26T06:22:53.145Z,59.3
2018-12-26T06:23:43.050Z,59.3
2018-12-26T06:24:33.438Z,59.3
2018-12-26T06:25:22.944Z,59.3
2018-12-26T06:26:13.650Z,59.3
2018-12-26T06:27:03.325Z,59.3
2018-12-26T06:27:55.612Z,59.3
2018-12-26T06:28:43.694Z,59.3
2018-12-26T06:29:33.385Z,59.3
2018-12-26T06:30:23.752Z,59.3
2018-12-26T06:31:14.434Z,59.2
2018-12-26T06:32:03.932Z,59.3
2018-12-26T06:32:53.454Z,59.2
2018-12-26T06:33:44.302Z,59.2
2018-12-26T06:34:34.657Z,59.2
2018-12-26T06:35:25.029Z,59.2
2018-12-26T06:36:14.506Z,59.2
2018-12-26T06:37:04.261Z,59.2
2018-12-26T06:37:54.449Z,59.1
2018-12-26T06:38:45.159Z,59.1
2018-12-26T06:39:34.174Z,59.1
2018-12-26T06:40:24.789Z,59.1
2018-12-26T06:41:14.263Z,59.1
2018-12-26T06:42:04.624Z,59.1
2018-12-26T06:42:54.956Z,59.1
2018-12-26T06:43:44.776Z,59.1
2018-12-26T06:44:37.330Z,59.1
2018-12-26T06:45:24.554Z,59.1
2018-12-26T06:46:14.911Z,59.1
2018-12-26T06:47:05.506Z,59.1
2018-12-26T06:47:55.573Z,59.1
2018-12-26T06:48:45.173Z,59.1
2018-12-26T06:49:34.873Z,59.1
2018-12-26T06:50:25.302Z,59.1
2018-12-26T06:51:15.547Z,59
2018-12-26T06:52:05.300Z,59.1
2018-12-26T06:52:55.070Z,59
2018-12-26T06:53:45.466Z,59
2018-12-26T06:54:34.895Z,59
2018-12-26T06:55:24.990Z,59
2018-12-26T06:56:15.843Z,59
2018-12-26T06:57:05.980Z,59
2018-12-26T06:58:04.641Z,59
2018-12-26T06:58:45.860Z,59
2018-12-26T06:59:35.900Z,59
2018-12-26T07:00:25.042Z,59
2018-12-26T07:01:16.197Z,58.9
2018-12-26T07:02:05.677Z,58.9
2018-12-26T07:02:56.097Z,58.9
2018-12-26T07:03:45.827Z,58.9
2018-12-26T07:04:36.682Z,58.9
2018-12-26T07:05:26.780Z,58.9
2018-12-26T07:06:15.519Z,58.9
2018-12-26T07:07:06.365Z,58.9
2018-12-26T07:07:56.923Z,58.9
2018-12-26T07:08:46.524Z,58.9
2018-12-26T07:09:37.042Z,58.9
2018-12-26T07:10:26.019Z,58.9
2018-12-26T07:11:16.889Z,58.9
2018-12-26T07:12:06.185Z,58.9
2018-12-26T07:12:56.714Z,58.9
2018-12-26T07:13:46.772Z,58.8
2018-12-26T07:14:37.192Z,58.8
2018-12-26T07:15:26.970Z,58.9
2018-12-26T07:16:19.341Z,58.8
2018-12-26T07:17:07.362Z,58.8
2018-12-26T07:17:57.345Z,58.8
2018-12-26T07:18:46.827Z,58.8
2018-12-26T07:19:36.837Z,58.8
2018-12-26T07:20:28.157Z,58.8
2018-12-26T07:21:17.282Z,58.8
2018-12-26T07:22:07.621Z,58.8
2018-12-26T07:22:57.771Z,58.8
2018-12-26T07:23:47.484Z,58.8
2018-12-26T07:24:37.926Z,58.8
2018-12-26T07:25:27.229Z,58.8
2018-12-26T07:26:17.345Z,58.8
2018-12-26T07:27:08.024Z,58.8
2018-12-26T07:27:58.014Z,58.8
2018-12-26T07:28:47.791Z,58.8
2018-12-26T07:29:38.201Z,58.8
2018-12-26T07:30:27.899Z,58.7
2018-12-26T07:31:18.561Z,58.7
2018-12-26T07:32:08.303Z,58.7
2018-12-26T07:32:58.656Z,58.7
2018-12-26T07:33:48.237Z,58.7
2018-12-26T07:34:46.411Z,58.7
2018-12-26T07:35:27.726Z,58.7
2018-12-26T07:36:19.021Z,58.6
2018-12-26T07:37:08.656Z,58.6
2018-12-26T07:37:58.703Z,58.6
2018-12-26T07:38:48.513Z,58.6
2018-12-26T07:39:39.105Z,58.6
2018-12-26T07:40:28.361Z,58.6
2018-12-26T07:41:18.126Z,58.6
2018-12-26T07:42:09.545Z,58.6
2018-12-26T07:52:09.650Z,58.5
2018-12-26T07:53:49.249Z,58.5
2018-12-26T07:54:39.855Z,58.5
2018-12-26T07:55:29.641Z,58.5
2018-12-26T07:56:19.974Z,58.5
2018-12-26T07:57:10.164Z,58.5
2018-12-26T07:57:59.534Z,58.5
2018-12-26T07:58:49.322Z,58.5
2018-12-26T07:59:42.139Z,58.4
2018-12-26T08:00:30.094Z,58.4
2018-12-26T08:01:20.694Z,58.4
2018-12-26T08:02:10.089Z,58.4
2018-12-26T08:03:00.704Z,58.4
2018-12-26T08:03:49.491Z,58.4
2018-12-26T08:04:40.542Z,58.4
2018-12-26T08:05:30.609Z,58.4
2018-12-26T08:06:21.114Z,58.4
2018-12-26T08:07:10.481Z,58.4
2018-12-26T08:08:00.811Z,58.4
2018-12-26T08:08:50.292Z,58.4
2018-12-26T08:09:40.614Z,58.4
2018-12-26T08:10:29.866Z,58.4
2018-12-26T08:11:20.726Z,58.4
2018-12-26T08:12:10.234Z,58.4
2018-12-26T08:13:00.844Z,58.4
2018-12-26T08:13:50.912Z,58.4
2018-12-26T08:14:40.676Z,58.4
2018-12-26T08:15:31.003Z,58.4
2018-12-26T08:16:20.538Z,58.3
2018-12-26T08:17:11.281Z,58.3
2018-12-26T08:18:01.624Z,58.3
2018-12-26T08:18:51.243Z,58.3
2018-12-26T08:19:41.553Z,58.3
2018-12-26T08:20:31.345Z,58.3
2018-12-26T08:21:21.680Z,58.3
2018-12-26T08:22:11.700Z,58.3
2018-12-26T08:23:01.805Z,58.3
2018-12-26T08:23:51.664Z,58.3
2018-12-26T08:24:42.173Z,58.3
2018-12-26T08:25:32.366Z,58.3
2018-12-26T08:26:21.485Z,58.3
2018-12-26T08:27:12.357Z,58.3
2018-12-26T08:28:02.174Z,58.3
2018-12-26T08:28:51.643Z,58.3
2018-12-26T08:29:41.427Z,58.3
2018-12-26T08:30:32.047Z,58.3
2018-12-26T08:31:22.091Z,58.2
2018-12-26T08:32:12.570Z,58.2
2018-12-26T08:33:02.754Z,58.2
2018-12-26T08:33:52.251Z,58.2
2018-12-26T08:34:42.359Z,58.2
2018-12-26T08:35:32.655Z,58.2
2018-12-26T08:36:22.755Z,58.2
2018-12-26T08:37:12.199Z,58.2
2018-12-26T08:38:02.805Z,58.2
2018-12-26T08:38:52.898Z,58.2
2018-12-26T08:39:43.220Z,58.1
2018-12-26T08:40:33.285Z,58.2
2018-12-26T08:41:22.542Z,58.1
2018-12-26T08:42:12.839Z,58.1
2018-12-26T08:43:02.670Z,58.1
2018-12-26T08:43:53.499Z,58.1
2018-12-26T08:44:42.449Z,58.1
2018-12-26T08:45:32.593Z,58.1
2018-12-26T08:46:23.709Z,58.1
2018-12-26T08:47:13.462Z,58.1
2018-12-26T08:48:03.529Z,58.1
2018-12-26T08:48:53.292Z,58.1
2018-12-26T08:49:43.929Z,58.1
2018-12-26T08:50:33.691Z,58.1
2018-12-26T08:51:24.011Z,58.1
2018-12-26T08:52:28.804Z,58.1
2018-12-26T08:53:03.014Z,58.1
2018-12-26T08:53:54.174Z,58.1
2018-12-26T08:54:43.693Z,58.1
2018-12-26T08:55:34.046Z,58
2018-12-26T08:56:23.933Z,58
2018-12-26T08:57:14.508Z,58
2018-12-26T08:58:03.759Z,58
2018-12-26T08:58:55.814Z,58.1
2018-12-26T08:59:43.493Z,58
2018-12-26T09:00:33.823Z,58
2018-12-26T09:16:28.092Z,57.9
2018-12-26T09:17:18.294Z,57.9
2018-12-26T09:18:07.816Z,57.9
2018-12-26T09:18:58.693Z,57.9
2018-12-26T09:19:48.479Z,57.9
2018-12-26T09:20:38.624Z,57.9
2018-12-26T09:21:28.192Z,57.8
2018-12-26T09:22:18.881Z,57.8
2018-12-26T09:23:10.979Z,57.8
2018-12-26T09:23:58.890Z,57.8
2018-12-26T09:24:48.567Z,57.8
2018-12-26T09:25:38.333Z,57.8
2018-12-26T09:26:28.433Z,57.8
2018-12-26T09:27:18.976Z,57.8
2018-12-26T09:35:39.574Z,57.7
2018-12-26T09:36:29.065Z,57.7
2018-12-26T09:37:19.390Z,57.7
2018-12-26T09:38:09.742Z,57.7
2018-12-26T09:38:59.501Z,57.7
2018-12-26T09:39:49.568Z,57.7
2018-12-26T09:40:39.888Z,57.7
2018-12-26T09:41:29.407Z,57.7
2018-12-26T09:42:19.837Z,57.7
2018-12-26T09:43:10.071Z,57.7
2018-12-26T09:43:59.867Z,57.7
2018-12-26T09:44:58.377Z,57.6
2018-12-26T09:45:39.705Z,57.6
2018-12-26T09:46:30.029Z,57.6
2018-12-26T09:47:20.514Z,57.6
2018-12-26T09:48:09.579Z,57.6
2018-12-26T09:48:59.936Z,57.6
2018-12-26T09:49:50.281Z,57.6
2018-12-26T09:50:39.794Z,57.6
2018-12-26T09:51:30.657Z,57.6
2018-12-26T09:52:21.106Z,57.6
2018-12-26T09:53:09.946Z,57.6
2018-12-26T09:54:00.654Z,57.6
2018-12-26T09:54:52.127Z,57.6
2018-12-26T09:55:40.666Z,57.6
2018-12-26T09:56:30.171Z,57.6
2018-12-26T09:57:21.194Z,57.6
2018-12-26T09:58:10.534Z,57.6
2018-12-26T09:59:00.883Z,57.6
2018-12-26T09:59:50.667Z,57.6
2018-12-26T10:00:41.381Z,57.6
2018-12-26T10:01:31.403Z,57.6
2018-12-26T10:02:21.406Z,57.5
2018-12-26T10:03:11.253Z,57.5
2018-12-26T10:04:00.516Z,57.5
2018-12-26T10:04:51.586Z,57.5
2018-12-26T10:05:41.660Z,57.5
2018-12-26T10:06:31.425Z,57.5
2018-12-26T10:07:21.493Z,57.5
2018-12-26T10:08:12.087Z,57.4
2018-12-26T10:09:01.370Z,57.4
2018-12-26T10:09:50.815Z,57.4
2018-12-26T10:10:42.000Z,57.5
2018-12-26T10:11:31.785Z,57.4
2018-12-26T10:12:22.393Z,57.4
2018-12-26T10:13:11.882Z,57.4
2018-12-26T10:14:01.403Z,57.4
2018-12-26T10:14:51.743Z,57.4
2018-12-26T10:15:42.074Z,57.4
2018-12-26T10:16:32.115Z,57.4
2018-12-26T10:17:22.449Z,57.4
2018-12-26T10:18:11.917Z,57.4
2018-12-26T10:19:02.559Z,57.4
2018-12-26T10:19:54.795Z,57.4
2018-12-26T10:20:42.919Z,57.4
2018-12-26T10:21:32.451Z,57.4
2018-12-26T10:22:22.822Z,57.4
2018-12-26T10:23:12.814Z,57.4
2018-12-26T10:24:03.202Z,57.4
2018-12-26T10:24:52.382Z,57.3
2018-12-26T10:25:42.805Z,57.3
2018-12-26T10:26:32.804Z,57.3
2018-12-26T10:27:23.104Z,57.3
2018-12-26T10:28:12.894Z,57.3
2018-12-26T10:29:05.704Z,57.3
2018-12-26T10:29:53.291Z,57.3
2018-12-26T10:30:42.941Z,57.3
2018-12-26T10:31:33.394Z,57.3
2018-12-26T10:32:22.619Z,57.3
2018-12-26T10:33:13.521Z,57.3
2018-12-26T10:34:03.829Z,57.3
2018-12-26T10:34:53.899Z,57.3
2018-12-26T10:35:43.676Z,57.3
2018-12-26T10:36:33.448Z,57.3
2018-12-26T10:37:23.291Z,57.3
2018-12-26T10:38:13.553Z,57.3
2018-12-26T10:39:03.635Z,57.3
2018-12-26T10:39:53.971Z,57.3
2018-12-26T10:40:44.421Z,57.2
2018-12-26T10:41:33.808Z,57.2
2018-12-26T10:42:23.578Z,57.2
2018-12-26T10:43:14.188Z,57.2
2018-12-26T10:44:03.150Z,57.2
2018-12-26T10:44:53.748Z,57.2
2018-12-26T10:45:44.085Z,57.2
2018-12-26T10:46:34.505Z,57.2
2018-12-26T10:47:24.480Z,57.2
2018-12-26T10:48:14.600Z,57.2
2018-12-26T10:49:04.373Z,57.1
2018-12-26T10:49:54.655Z,57.1
2018-12-26T10:50:44.440Z,57.1
2018-12-26T10:51:34.313Z,57.1
2018-12-26T10:52:24.585Z,57.1
2018-12-26T10:53:14.594Z,57.1
2018-12-26T10:54:04.688Z,57.1
2018-12-26T10:54:55.012Z,57.1
2018-12-26T10:55:44.863Z,57.1
2018-12-26T10:56:34.560Z,57.1
2018-12-26T10:57:25.457Z,57.1
2018-12-26T10:58:15.590Z,57.1
2018-12-26T10:59:14.159Z,57.1
2018-12-26T10:59:54.769Z,57.1
2018-12-26T11:00:45.644Z,57.1
2018-12-26T11:01:35.478Z,57.1
2018-12-26T11:02:24.957Z,57.1
2018-12-26T11:03:15.824Z,57.1
2018-12-26T11:04:05.068Z,57.1
2018-12-26T11:04:55.447Z,57.1
2018-12-26T11:05:45.484Z,57
2018-12-26T11:06:35.247Z,57
2018-12-26T11:07:25.874Z,57
2018-12-26T11:08:15.954Z,57
2018-12-26T11:09:05.157Z,57
2018-12-26T11:09:56.104Z,57
2018-12-26T11:10:46.612Z,56.9
2018-12-26T11:11:35.974Z,57
2018-12-26T11:12:26.259Z,57
2018-12-26T11:13:16.000Z,56.9
2018-12-26T11:14:06.339Z,56.9
2018-12-26T11:14:56.377Z,56.9
2018-12-26T11:15:46.684Z,56.9
2018-12-26T11:16:36.226Z,56.9
2018-12-26T11:17:26.549Z,56.9
2018-12-26T11:18:16.338Z,56.9
2018-12-26T11:19:07.066Z,56.9
2018-12-26T11:19:56.793Z,56.9
2018-12-26T11:20:46.821Z,56.9
2018-12-26T11:21:36.556Z,56.9
2018-12-26T11:22:27.286Z,56.9
2018-12-26T11:23:17.228Z,56.9
2018-12-26T11:24:05.904Z,56.9
2018-12-26T11:24:56.843Z,56.9
2018-12-26T11:25:46.852Z,56.9
2018-12-26T11:26:37.173Z,56.9
2018-12-26T11:27:27.043Z,56.9
2018-12-26T11:28:16.636Z,56.9
2018-12-26T11:29:06.861Z,56.8
2018-12-26T11:29:57.168Z,56.8
2018-12-26T11:30:46.718Z,56.8
2018-12-26T11:31:37.318Z,56.8
2018-12-26T11:32:27.295Z,56.8
2018-12-26T11:33:17.181Z,56.8
2018-12-26T11:34:07.156Z,56.8
2018-12-26T11:34:57.760Z,56.8
2018-12-26T11:35:46.953Z,56.8
2018-12-26T11:36:38.470Z,56.8
2018-12-26T11:37:27.755Z,56.8
2018-12-26T11:38:18.245Z,56.8
2018-12-26T11:39:07.733Z,56.8
2018-12-26T11:39:58.346Z,56.8
2018-12-26T11:40:48.403Z,56.8
2018-12-26T11:41:38.733Z,56.8
2018-12-26T11:42:27.198Z,56.8
2018-12-26T11:43:18.333Z,56.7
2018-12-26T11:44:08.184Z,56.7
2018-12-26T11:44:58.723Z,56.7
2018-12-26T11:45:48.275Z,56.7
2018-12-26T11:46:38.812Z,56.6
2018-12-26T11:47:28.337Z,56.6
2018-12-26T11:48:18.675Z,56.6
2018-12-26T11:49:08.745Z,56.6
2018-12-26T11:49:58.240Z,56.6
2018-12-26T11:50:48.835Z,56.6
2018-12-26T11:51:38.609Z,56.6
2018-12-26T11:52:28.699Z,56.6
2018-12-26T11:53:18.729Z,56.6
2018-12-26T11:54:08.792Z,56.6
2018-12-26T11:54:59.120Z,56.6
2018-12-26T11:55:49.192Z,56.6
2018-12-26T11:56:38.682Z,56.6
2018-12-26T11:57:28.843Z,56.6
2018-12-26T11:58:18.254Z,56.6
2018-12-26T11:59:09.702Z,56.6
2018-12-26T11:59:58.917Z,56.6
2018-12-26T12:00:49.531Z,56.6
2018-12-26T12:01:39.284Z,56.6
2018-12-26T12:02:29.357Z,56.5
2018-12-26T12:03:18.882Z,56.6
2018-12-26T12:04:09.237Z,56.5
2018-12-26T12:04:59.859Z,56.5
2018-12-26T12:05:49.816Z,56.5
2018-12-26T12:06:39.916Z,56.5
2018-12-26T12:07:29.156Z,56.5
2018-12-26T12:08:19.761Z,56.5
2018-12-26T12:09:10.098Z,56.5
2018-12-26T12:09:59.349Z,56.5
2018-12-26T12:10:52.620Z,56.4
2018-12-26T12:11:39.981Z,56.5
2018-12-26T12:12:30.346Z,56.4
2018-12-26T12:13:19.823Z,56.4
2018-12-26T12:14:10.433Z,56.4
2018-12-26T12:15:00.320Z,56.4
2018-12-26T12:15:49.513Z,56.4